Nisshoumaru — JD3093 — position and weather

sailwx.info

Track history (hours):
 
Tides and Currents Weather Stations Pressure Air Temp Water Temp Dewpoint Dewpoint Depression Visibility Wind Speed Wind Dir Waves Ship Positions

Nisshoumaru

Last reported at 2014-Jul-04 15:22 UTC. Time now 2014-Jul-23 05:14 UTC.
Position N 34°43' E 139°10'.
Warning: this ship's position is 18 days out of date.

Length 76 m; draft 4 m.

Type: Cargo ship. MMSI: 431001549.

Date/timePositionNaut miles runAvg speedWind from/ knotsBaromVisibWave heightAir tempDewpointWater temp
2014-Jul-04 15:22N 34°43' E 139°10'2412.6
2014-Jul-04 13:26N 34°51' E 139°38'1112.3
2014-Jul-04 12:31N 34°52' E 139°52'1211.7
2014-Jul-04 11:28N 34°58' E 140°06'2612.7
2014-Jul-04 09:27N 35°14' E 140°29'1112.6
2014-Jul-04 08:34N 35°23' E 140°38'3210.4
2014-Jul-04 05:32N 35°54' E 140°48'6 6.4
2014-Jul-04 04:32N 35°55' E 140°40'0 0.2
2014-Jul-04 03:06N 35°56' E 140°40'0 0.1
2014-Jul-04 02:33N 35°56' E 140°40'0 0.1
2014-Jul-04 01:33N 35°56' E 140°40'0 0.0
2014-Jul-04 00:31N 35°56' E 140°40'0 0.0
2014-Jul-03 23:33N 35°56' E 140°40'0 0.0
2014-Jul-03 22:33N 35°56' E 140°40'0 0.0
2014-Jul-03 21:34N 35°56' E 140°40'0 0.0
2014-Jul-03 20:33N 35°56' E 140°40'0 0.1
2014-Jul-03 19:33N 35°56' E 140°40'0 0.0
2014-Jul-03 18:34N 35°56' E 140°40'0 0.1
2014-Jul-03 17:34N 35°56' E 140°40'0 0.0
2014-Jul-03 16:29N 35°56' E 140°40'0 0.0
2014-Jul-03 15:33N 35°56' E 140°40'0 0.0
2014-Jul-03 14:33N 35°56' E 140°40'0 0.0
2014-Jul-03 13:33N 35°56' E 140°40'0 0.0
2014-Jul-03 12:33N 35°56' E 140°40'0 0.0
2014-Jul-03 11:34N 35°56' E 140°40'0 0.1
2014-Jul-03 10:33N 35°56' E 140°40'0 0.0
2014-Jul-03 07:08N 35°56' E 140°40'0 0.1
2014-Jul-03 06:32N 35°56' E 140°40'0 0.1
2014-Jul-03 05:33N 35°56' E 140°40'0 0.1
2014-Jul-03 04:32N 35°56' E 140°40'0 0.0
2014-Jul-03 03:28N 35°56' E 140°40'0 0.0
2014-Jul-03 02:19N 35°56' E 140°40'0 0.1
2014-Jul-03 01:26N 35°56' E 140°40'0 0.0
2014-Jul-02 23:23N 35°56' E 140°40'0 0.0
2014-Jul-02 22:20N 35°56' E 140°40'0 0.1
2014-Jul-02 21:33N 35°56' E 140°40'0 0.1
2014-Jul-02 20:29N 35°56' E 140°40'0 0.0
2014-Jul-02 19:30N 35°56' E 140°40'0 0.0
2014-Jul-02 18:33N 35°56' E 140°40'0 0.0
2014-Jul-02 17:33N 35°56' E 140°40'0 0.0
2014-Jul-02 16:30N 35°56' E 140°40'0 0.1
2014-Jul-02 15:33N 35°56' E 140°40'0 0.1
2014-Jul-02 14:04N 35°56' E 140°40'0 0.1
2014-Jul-02 13:12N 35°56' E 140°40'0 0.1
2014-Jul-02 12:29N 35°56' E 140°40'0 0.0
2014-Jul-02 11:17N 35°56' E 140°40'0 0.0
2014-Jul-02 10:33N 35°56' E 140°40'0 0.0
2014-Jul-02 09:27N 35°56' E 140°40'0 0.1
2014-Jul-02 08:33N 35°56' E 140°40'0 0.0
2014-Jul-02 06:33N 35°56' E 140°40'0 0.0
2014-Jul-02 05:32N 35°56' E 140°40'0 0.0
2014-Jul-02 04:32N 35°56' E 140°40'0 0.0
2014-Jul-02 03:33N 35°56' E 140°40'0 0.1
2014-Jul-02 02:33N 35°56' E 140°40'2 1.8
2014-Jul-02 01:27N 35°57' E 140°42'0 0.0
2014-Jul-02 00:22N 35°57' E 140°42'0 0.0
2014-Jul-01 22:07N 35°57' E 140°42'0 0.1
2014-Jul-01 21:32N 35°57' E 140°42'0 0.0
2014-Jul-01 20:33N 35°57' E 140°42'0 0.0
2014-Jul-01 19:33N 35°57' E 140°42'0 0.0
2014-Jul-01 18:19N 35°57' E 140°42'0 0.0
2014-Jul-01 15:14N 35°57' E 140°42'2 3.5
2014-Jul-01 14:33N 35°56' E 140°45'1212.1
2014-Jul-01 13:32N 35°46' E 140°54'5012.5
2014-Jul-01 09:31N 35°05' E 140°19'1413.4
2014-Jul-01 08:28N 34°57' E 140°04'18 9.5
2014-Jul-01 06:33N 35°01' E 139°43'1313.1
2014-Jul-01 05:33N 35°14' E 139°46'1111.5
2014-Jul-01 04:33N 35°25' E 139°44'1313.0
2014-Jul-01 03:33N 35°33' E 139°57'8 7.7
2014-Jul-01 02:33N 35°37' E 140°05'0 0.0
2014-Jul-01 01:33N 35°37' E 140°05'0 0.0
2014-Jul-01 00:33N 35°37' E 140°05'0 0.0
2014-Jun-30 23:33N 35°37' E 140°05'1 1.4
2014-Jun-30 22:33N 35°35' E 140°04'1 0.9
2014-Jun-30 21:33N 35°35' E 140°04'0 0.0
2014-Jun-30 20:33N 35°35' E 140°04'0 0.0
2014-Jun-30 19:33N 35°35' E 140°04'0 0.1
2014-Jun-30 18:33N 35°35' E 140°04'0 0.0
2014-Jun-30 17:33N 35°35' E 140°04'0 0.0
2014-Jun-30 16:33N 35°35' E 140°04'0 0.1
2014-Jun-30 15:33N 35°35' E 140°04'0 0.0
2014-Jun-30 14:33N 35°35' E 140°04'0 0.0
2014-Jun-30 13:33N 35°35' E 140°04'0 0.0
2014-Jun-30 12:33N 35°35' E 140°04'0 0.0
2014-Jun-30 11:33N 35°35' E 140°03'0 0.0
2014-Jun-30 10:33N 35°35' E 140°03'0 0.0
2014-Jun-30 09:33N 35°35' E 140°03'0 0.0
2014-Jun-30 08:33N 35°35' E 140°03'0 0.0
2014-Jun-30 07:33N 35°35' E 140°04'7 7.5
2014-Jun-30 06:33N 35°31' E 139°56'1312.6
2014-Jun-30 05:33N 35°22' E 139°45'1211.7
2014-Jun-30 04:33N 35°10' E 139°46'1211.8
2014-Jun-30 03:33N 35°01' E 139°38'  
2014-Jun-27 07:28N 34°37' E 134°57'1010.9
2014-Jun-27 06:33N 34°36' E 135°09'1212.4
2014-Jun-27 05:33N 34°38' E 135°24'3 3.4
2014-Jun-27 04:33N 34°39' E 135°28'0 0.0
2014-Jun-27 03:32N 34°39' E 135°28'0 0.0
2014-Jun-27 02:22N 34°39' E 135°28'0 0.0
2014-Jun-27 01:33N 34°39' E 135°28'0 0.0
2014-Jun-27 00:33N 34°39' E 135°28'0 0.0
2014-Jun-26 23:33N 34°39' E 135°28'0 0.0
2014-Jun-26 22:33N 34°39' E 135°28'0 0.0
2014-Jun-26 21:33N 34°39' E 135°28'0 0.0
2014-Jun-26 20:33N 34°39' E 135°28'0 0.0
2014-Jun-26 19:33N 34°39' E 135°28'0 0.0
2014-Jun-26 18:33N 34°39' E 135°28'0 0.0
2014-Jun-26 17:33N 34°39' E 135°28'0 0.0
2014-Jun-26 16:33N 34°39' E 135°28'0 0.0
2014-Jun-26 15:33N 34°39' E 135°28'0 0.0
2014-Jun-26 14:33N 34°39' E 135°28'0 0.0
2014-Jun-26 13:33N 34°39' E 135°28'0 0.0
2014-Jun-26 12:33N 34°39' E 135°28'0 0.0
2014-Jun-26 11:33N 34°39' E 135°28'0 0.0
2014-Jun-26 10:33N 34°39' E 135°28'0 0.0
2014-Jun-26 09:33N 34°39' E 135°28'0 0.0
2014-Jun-26 08:32N 34°39' E 135°28'0 0.0
2014-Jun-26 07:33N 34°39' E 135°28'0 0.0
2014-Jun-26 06:33N 34°39' E 135°28'0 0.0
2014-Jun-26 05:34N 34°39' E 135°28'0 0.0
2014-Jun-26 04:33N 34°39' E 135°28'0 0.0
2014-Jun-26 03:33N 34°39' E 135°28'0 0.0
2014-Jun-26 02:33N 34°39' E 135°28'0 0.0
2014-Jun-26 01:33N 34°39' E 135°28'0 0.0
2014-Jun-26 00:32N 34°39' E 135°28'0 0.5
2014-Jun-25 23:32N 34°39' E 135°27'4 4.4
2014-Jun-25 22:33N 34°37' E 135°23'0 0.0
2014-Jun-25 21:33N 34°37' E 135°23'0 0.0
2014-Jun-25 20:33N 34°37' E 135°23'0 0.0
2014-Jun-25 19:33N 34°37' E 135°23'0 0.0
2014-Jun-25 18:33N 34°37' E 135°23'0 0.0
2014-Jun-25 17:33N 34°37' E 135°23'4 3.7
2014-Jun-25 16:33N 34°36' E 135°18'1313.0
2014-Jun-25 15:33N 34°36' E 135°03'  
Track history (hours):
 
Tides and Currents Weather Stations Pressure Air Temp Water Temp Dewpoint Dewpoint Depression Visibility Wind Speed Wind Dir Waves Ship Positions

Nisshoumaru

Last reported at 2014-Jul-04 15:22 UTC. Time now 2014-Jul-23 05:14 UTC.
Position N 34°43' E 139°10'.
Warning: this ship's position is 18 days out of date.

Length 76 m; draft 4 m.

Type: Cargo ship. MMSI: 431001549.

Date/timePositionNaut miles runAvg speedWind from/ knotsBaromVisibWave heightAir tempDewpointWater temp
2014-Jul-04 15:22N 34°43' E 139°10'2412.6
2014-Jul-04 13:26N 34°51' E 139°38'1112.3
2014-Jul-04 12:31N 34°52' E 139°52'1211.7
2014-Jul-04 11:28N 34°58' E 140°06'2612.7
2014-Jul-04 09:27N 35°14' E 140°29'1112.6
2014-Jul-04 08:34N 35°23' E 140°38'3210.4
2014-Jul-04 05:32N 35°54' E 140°48'6 6.4
2014-Jul-04 04:32N 35°55' E 140°40'0 0.2
2014-Jul-04 03:06N 35°56' E 140°40'0 0.1
2014-Jul-04 02:33N 35°56' E 140°40'0 0.1
2014-Jul-04 01:33N 35°56' E 140°40'0 0.0
2014-Jul-04 00:31N 35°56' E 140°40'0 0.0
2014-Jul-03 23:33N 35°56' E 140°40'0 0.0
2014-Jul-03 22:33N 35°56' E 140°40'0 0.0
2014-Jul-03 21:34N 35°56' E 140°40'0 0.0
2014-Jul-03 20:33N 35°56' E 140°40'0 0.1
2014-Jul-03 19:33N 35°56' E 140°40'0 0.0
2014-Jul-03 18:34N 35°56' E 140°40'0 0.1
2014-Jul-03 17:34N 35°56' E 140°40'0 0.0
2014-Jul-03 16:29N 35°56' E 140°40'0 0.0
2014-Jul-03 15:33N 35°56' E 140°40'0 0.0
2014-Jul-03 14:33N 35°56' E 140°40'0 0.0
2014-Jul-03 13:33N 35°56' E 140°40'0 0.0
2014-Jul-03 12:33N 35°56' E 140°40'0 0.0
2014-Jul-03 11:34N 35°56' E 140°40'0 0.1
2014-Jul-03 10:33N 35°56' E 140°40'0 0.0
2014-Jul-03 07:08N 35°56' E 140°40'0 0.1
2014-Jul-03 06:32N 35°56' E 140°40'0 0.1
2014-Jul-03 05:33N 35°56' E 140°40'0 0.1
2014-Jul-03 04:32N 35°56' E 140°40'0 0.0
2014-Jul-03 03:28N 35°56' E 140°40'0 0.0
2014-Jul-03 02:19N 35°56' E 140°40'0 0.1
2014-Jul-03 01:26N 35°56' E 140°40'0 0.0
2014-Jul-02 23:23N 35°56' E 140°40'0 0.0
2014-Jul-02 22:20N 35°56' E 140°40'0 0.1
2014-Jul-02 21:33N 35°56' E 140°40'0 0.1
2014-Jul-02 20:29N 35°56' E 140°40'0 0.0
2014-Jul-02 19:30N 35°56' E 140°40'0 0.0
2014-Jul-02 18:33N 35°56' E 140°40'0 0.0
2014-Jul-02 17:33N 35°56' E 140°40'0 0.0
2014-Jul-02 16:30N 35°56' E 140°40'0 0.1
2014-Jul-02 15:33N 35°56' E 140°40'0 0.1
2014-Jul-02 14:04N 35°56' E 140°40'0 0.1
2014-Jul-02 13:12N 35°56' E 140°40'0 0.1
2014-Jul-02 12:29N 35°56' E 140°40'0 0.0
2014-Jul-02 11:17N 35°56' E 140°40'0 0.0
2014-Jul-02 10:33N 35°56' E 140°40'0 0.0
2014-Jul-02 09:27N 35°56' E 140°40'0 0.1
2014-Jul-02 08:33N 35°56' E 140°40'0 0.0
2014-Jul-02 06:33N 35°56' E 140°40'0 0.0
2014-Jul-02 05:32N 35°56' E 140°40'0 0.0
2014-Jul-02 04:32N 35°56' E 140°40'0 0.0
2014-Jul-02 03:33N 35°56' E 140°40'0 0.1
2014-Jul-02 02:33N 35°56' E 140°40'2 1.8
2014-Jul-02 01:27N 35°57' E 140°42'0 0.0
2014-Jul-02 00:22N 35°57' E 140°42'0 0.0
2014-Jul-01 22:07N 35°57' E 140°42'0 0.1
2014-Jul-01 21:32N 35°57' E 140°42'0 0.0
2014-Jul-01 20:33N 35°57' E 140°42'0 0.0
2014-Jul-01 19:33N 35°57' E 140°42'0 0.0
2014-Jul-01 18:19N 35°57' E 140°42'0 0.0
2014-Jul-01 15:14N 35°57' E 140°42'2 3.5
2014-Jul-01 14:33N 35°56' E 140°45'1212.1
2014-Jul-01 13:32N 35°46' E 140°54'5012.5
2014-Jul-01 09:31N 35°05' E 140°19'1413.4
2014-Jul-01 08:28N 34°57' E 140°04'18 9.5
2014-Jul-01 06:33N 35°01' E 139°43'1313.1
2014-Jul-01 05:33N 35°14' E 139°46'1111.5
2014-Jul-01 04:33N 35°25' E 139°44'1313.0
2014-Jul-01 03:33N 35°33' E 139°57'8 7.7
2014-Jul-01 02:33N 35°37' E 140°05'0 0.0
2014-Jul-01 01:33N 35°37' E 140°05'0 0.0
2014-Jul-01 00:33N 35°37' E 140°05'0 0.0
2014-Jun-30 23:33N 35°37' E 140°05'1 1.4
2014-Jun-30 22:33N 35°35' E 140°04'1 0.9
2014-Jun-30 21:33N 35°35' E 140°04'0 0.0
2014-Jun-30 20:33N 35°35' E 140°04'0 0.0
2014-Jun-30 19:33N 35°35' E 140°04'0 0.1
2014-Jun-30 18:33N 35°35' E 140°04'0 0.0
2014-Jun-30 17:33N 35°35' E 140°04'0 0.0
2014-Jun-30 16:33N 35°35' E 140°04'0 0.1
2014-Jun-30 15:33N 35°35' E 140°04'0 0.0
2014-Jun-30 14:33N 35°35' E 140°04'0 0.0
2014-Jun-30 13:33N 35°35' E 140°04'0 0.0
2014-Jun-30 12:33N 35°35' E 140°04'0 0.0
2014-Jun-30 11:33N 35°35' E 140°03'0 0.0
2014-Jun-30 10:33N 35°35' E 140°03'0 0.0
2014-Jun-30 09:33N 35°35' E 140°03'0 0.0
2014-Jun-30 08:33N 35°35' E 140°03'0 0.0
2014-Jun-30 07:33N 35°35' E 140°04'7 7.5
2014-Jun-30 06:33N 35°31' E 139°56'1312.6
2014-Jun-30 05:33N 35°22' E 139°45'1211.7
2014-Jun-30 04:33N 35°10' E 139°46'1211.8
2014-Jun-30 03:33N 35°01' E 139°38'  
2014-Jun-27 07:28N 34°37' E 134°57'1010.9
2014-Jun-27 06:33N 34°36' E 135°09'1212.4
2014-Jun-27 05:33N 34°38' E 135°24'3 3.4
2014-Jun-27 04:33N 34°39' E 135°28'0 0.0
2014-Jun-27 03:32N 34°39' E 135°28'0 0.0
2014-Jun-27 02:22N 34°39' E 135°28'0 0.0
2014-Jun-27 01:33N 34°39' E 135°28'0 0.0
2014-Jun-27 00:33N 34°39' E 135°28'0 0.0
2014-Jun-26 23:33N 34°39' E 135°28'0 0.0
2014-Jun-26 22:33N 34°39' E 135°28'0 0.0
2014-Jun-26 21:33N 34°39' E 135°28'0 0.0
2014-Jun-26 20:33N 34°39' E 135°28'0 0.0
2014-Jun-26 19:33N 34°39' E 135°28'0 0.0
2014-Jun-26 18:33N 34°39' E 135°28'0 0.0
2014-Jun-26 17:33N 34°39' E 135°28'0 0.0
2014-Jun-26 16:33N 34°39' E 135°28'0 0.0
2014-Jun-26 15:33N 34°39' E 135°28'0 0.0
2014-Jun-26 14:33N 34°39' E 135°28'0 0.0
2014-Jun-26 13:33N 34°39' E 135°28'0 0.0
2014-Jun-26 12:33N 34°39' E 135°28'0 0.0
2014-Jun-26 11:33N 34°39' E 135°28'0 0.0
2014-Jun-26 10:33N 34°39' E 135°28'0 0.0
2014-Jun-26 09:33N 34°39' E 135°28'0 0.0
2014-Jun-26 08:32N 34°39' E 135°28'0 0.0
2014-Jun-26 07:33N 34°39' E 135°28'0 0.0
2014-Jun-26 06:33N 34°39' E 135°28'0 0.0
2014-Jun-26 05:34N 34°39' E 135°28'0 0.0
2014-Jun-26 04:33N 34°39' E 135°28'0 0.0
2014-Jun-26 03:33N 34°39' E 135°28'0 0.0
2014-Jun-26 02:33N 34°39' E 135°28'0 0.0
2014-Jun-26 01:33N 34°39' E 135°28'0 0.0
2014-Jun-26 00:32N 34°39' E 135°28'0 0.5
2014-Jun-25 23:32N 34°39' E 135°27'4 4.4
2014-Jun-25 22:33N 34°37' E 135°23'0 0.0
2014-Jun-25 21:33N 34°37' E 135°23'0 0.0
2014-Jun-25 20:33N 34°37' E 135°23'0 0.0
2014-Jun-25 19:33N 34°37' E 135°23'0 0.0
2014-Jun-25 18:33N 34°37' E 135°23'0 0.0
2014-Jun-25 17:33N 34°37' E 135°23'4 3.7
2014-Jun-25 16:33N 34°36' E 135°18'1313.0
2014-Jun-25 15:33N 34°36' E 135°03'  

Dump ship's entire track history